createdAt,value
2023-02-06T00:01:59.779Z,102623.03
2023-02-06T00:04:28.257Z,102631.13
2023-02-06T00:06:58.389Z,102636.38
2023-02-06T00:09:26.556Z,102633.84
2023-02-06T00:11:54.837Z,102633.75
2023-02-06T00:14:23.011Z,102639.91
2023-02-06T00:16:51.220Z,102641.84
2023-02-06T00:19:20.931Z,102649.78
2023-02-06T00:21:51.370Z,102645.41
2023-02-06T00:24:19.599Z,102634.03
2023-02-06T00:26:48.949Z,102630.63
2023-02-06T00:29:17.121Z,102634.16
2023-02-06T00:31:45.382Z,102634.25
2023-02-06T00:34:13.746Z,102632.53
2023-02-06T00:36:43.395Z,102635.16
2023-02-06T00:39:11.566Z,102638.50
2023-02-06T00:41:41.543Z,102625.31
2023-02-06T00:44:09.715Z,102618.16
2023-02-06T00:46:38.175Z,102628.59
2023-02-06T00:49:08.620Z,102632.88
2023-02-06T00:51:38.966Z,102638.00
2023-02-06T00:54:09.571Z,102638.00
2023-02-06T00:56:37.816Z,102647.53
2023-02-06T00:59:08.589Z,102649.28
2023-02-06T01:01:36.906Z,102652.00
2023-02-06T01:04:08.113Z,102641.50
2023-02-06T01:06:37.524Z,102632.81
2023-02-06T01:09:05.892Z,102631.13
2023-02-06T01:11:38.279Z,102636.38
2023-02-06T01:14:06.738Z,102633.00
2023-02-06T01:16:34.943Z,102625.97
2023-02-06T01:19:05.089Z,102612.97
2023-02-06T01:21:33.283Z,102628.84
2023-02-06T01:24:01.509Z,102634.25
2023-02-06T01:26:29.725Z,102641.31
2023-02-06T01:28:59.427Z,102635.31
2023-02-06T01:31:29.288Z,102643.31
2023-02-06T01:33:59.388Z,102632.97
2023-02-06T01:36:28.588Z,102635.59
2023-02-06T01:38:56.829Z,102637.28
2023-02-06T01:41:25.224Z,102633.81
2023-02-06T01:44:14.034Z,102636.38
2023-02-06T01:46:44.847Z,102640.81
2023-02-06T01:49:17.563Z,102638.28
2023-02-06T01:51:48.336Z,102645.41
2023-02-06T01:54:16.935Z,102641.25
2023-02-06T01:57:03.322Z,102639.59
2023-02-06T01:59:33.339Z,102637.03
2023-02-06T02:02:01.666Z,102637.97
2023-02-06T02:04:33.209Z,102637.97
2023-02-06T02:07:09.182Z,102638.88
2023-02-06T02:09:38.205Z,102639.84
2023-02-06T02:12:07.427Z,102636.38
2023-02-06T02:14:38.366Z,102624.28
2023-02-06T02:17:24.301Z,102634.78
2023-02-06T02:20:34.224Z,102632.22
2023-02-06T02:23:20.934Z,102634.91
2023-02-06T02:26:13.850Z,102639.41
2023-02-06T02:29:26.462Z,102642.09
2023-02-06T02:32:27.130Z,102638.63
2023-02-06T02:35:25.314Z,102644.78
2023-02-06T02:38:02.605Z,102646.63
2023-02-06T02:40:41.048Z,102644.09
2023-02-06T02:43:19.412Z,102646.78
2023-02-06T02:45:53.807Z,102648.56
2023-02-06T02:48:27.031Z,102643.31
2023-02-06T02:50:59.415Z,102647.69
2023-02-06T02:53:27.948Z,102660.03
2023-02-06T02:55:56.879Z,102655.56
2023-02-06T02:58:30.131Z,102667.72
2023-02-06T03:01:02.750Z,102669.25
2023-02-06T03:03:35.946Z,102667.22
2023-02-06T03:06:28.228Z,102661.66
2023-02-06T03:09:02.099Z,102663.94
2023-02-06T03:11:31.196Z,102666.28
2023-02-06T03:14:04.226Z,102672.13
2023-02-06T03:16:39.643Z,102669.28
2023-02-06T03:19:12.534Z,102664.41
2023-02-06T03:21:44.737Z,102671.94
2023-02-06T03:24:16.962Z,102668.16
2023-02-06T03:26:46.773Z,102670.47
2023-02-06T03:29:17.655Z,102662.38
2023-02-06T03:31:51.121Z,102656.97
2023-02-06T03:34:24.452Z,102672.53
2023-02-06T03:36:54.676Z,102672.38
2023-02-06T03:39:26.180Z,102678.25
2023-02-06T03:41:56.556Z,102673.91
2023-02-06T03:44:29.353Z,102676.41
2023-02-06T03:47:00.553Z,102684.38
2023-02-06T03:49:33.778Z,102677.28
2023-02-06T03:52:13.813Z,102663.22
2023-02-06T03:54:50.561Z,102677.28
2023-02-06T03:57:20.431Z,102674.63
2023-02-06T03:59:49.322Z,102672.88
2023-02-06T04:02:19.318Z,102674.56
2023-02-06T04:04:47.695Z,102674.56
2023-02-06T04:07:34.901Z,102670.16
2023-02-06T04:10:03.111Z,102673.59
2023-02-06T04:12:31.515Z,102683.09
2023-02-06T04:14:59.874Z,102676.94
2023-02-06T04:17:57.629Z,102681.09
2023-02-06T04:20:28.239Z,102683.66
2023-02-06T04:22:57.959Z,102679.97
2023-02-06T04:25:26.944Z,102671.94
2023-02-06T04:27:55.264Z,102672.78
2023-02-06T04:30:23.750Z,102677.19
2023-02-06T04:33:12.452Z,102672.09
2023-02-06T04:35:40.675Z,102675.56
2023-02-06T04:38:10.280Z,102664.97
2023-02-06T04:40:41.993Z,102674.56
2023-02-06T04:43:10.237Z,102675.56
2023-02-06T04:45:38.840Z,102672.94
2023-02-06T04:48:07.449Z,102683.44
2023-02-06T04:50:35.934Z,102680.88
2023-02-06T04:53:04.639Z,102686.22
2023-02-06T04:55:36.243Z,102699.41
2023-02-06T04:58:04.872Z,102709.66
2023-02-06T05:00:33.093Z,102719.19
2023-02-06T05:03:01.350Z,102730.31
2023-02-06T05:05:29.590Z,102725.78
2023-02-06T05:07:58.829Z,102715.19
2023-02-06T05:10:27.101Z,102706.59
2023-02-06T05:12:57.277Z,102698.84
2023-02-06T05:15:25.517Z,102694.88
2023-02-06T05:17:53.738Z,102698.50
2023-02-06T05:20:22.155Z,102704.75
2023-02-06T05:22:50.400Z,102704.97
2023-02-06T05:25:19.121Z,102699.72
2023-02-06T05:27:47.431Z,102701.56
2023-02-06T05:30:20.447Z,102691.97
2023-02-06T05:32:48.709Z,102699.78
2023-02-06T05:35:29.355Z,102697.16
2023-02-06T05:37:58.902Z,102688.50
2023-02-06T05:40:27.119Z,102688.63
2023-02-06T05:42:55.345Z,102687.78
2023-02-06T05:45:25.165Z,102702.81
2023-02-06T05:47:53.798Z,102716.81
2023-02-06T05:50:22.325Z,102721.22
2023-02-06T05:52:50.925Z,102731.66
2023-02-06T05:55:20.470Z,102731.44
2023-02-06T05:57:48.696Z,102725.28
2023-02-06T06:00:17.589Z,102740.75
2023-02-06T06:02:47.209Z,102746.78
2023-02-06T06:05:15.396Z,102749.56
2023-02-06T06:07:43.757Z,102735.72
2023-02-06T06:10:11.952Z,102736.06
2023-02-06T06:12:40.213Z,102746.56
2023-02-06T06:15:09.388Z,102747.56
2023-02-06T06:17:40.509Z,102750.41
2023-02-06T06:20:11.023Z,102752.25
2023-02-06T06:22:39.268Z,102757.50
2023-02-06T06:25:07.987Z,102758.41
2023-02-06T06:27:36.217Z,102750.59
2023-02-06T06:30:04.870Z,102754.16
2023-02-06T06:32:33.087Z,102747.19
2023-02-06T06:35:01.264Z,102745.34
2023-02-06T06:37:31.257Z,102733.28
2023-02-06T06:39:59.465Z,102741.31
2023-02-06T06:42:33.074Z,102741.44
2023-02-06T06:45:01.298Z,102748.41
2023-02-06T06:47:33.170Z,102744.06
2023-02-06T06:50:01.429Z,102753.84
2023-02-06T06:52:36.859Z,102756.53
2023-02-06T06:55:05.565Z,102758.25
2023-02-06T06:57:33.944Z,102760.88
2023-02-06T07:00:02.154Z,102753.03
2023-02-06T07:02:30.419Z,102755.09
2023-02-06T07:05:00.483Z,102778.75
2023-02-06T07:07:46.555Z,102773.69
2023-02-06T07:10:18.985Z,102770.19
2023-02-06T07:12:47.183Z,102773.03
2023-02-06T07:15:15.840Z,102767.06
2023-02-06T07:17:46.261Z,102779.41
2023-02-06T07:20:14.710Z,102778.53
2023-02-06T07:22:45.032Z,102779.34
2023-02-06T07:25:13.236Z,102780.97
2023-02-06T07:27:42.879Z,102774.75
2023-02-06T07:30:12.463Z,102772.69
2023-02-06T07:32:41.361Z,102775.19
2023-02-06T07:35:09.960Z,102771.59
2023-02-06T07:37:40.178Z,102778.44
2023-02-06T07:40:09.112Z,102773.13
2023-02-06T07:42:37.280Z,102777.16
2023-02-06T07:45:09.660Z,102782.78
2023-02-06T07:47:37.961Z,102780.72
2023-02-06T07:50:08.993Z,102783.81
2023-02-06T07:52:37.251Z,102781.72
2023-02-06T07:55:05.886Z,102798.09
2023-02-06T07:57:34.046Z,102791.97
2023-02-06T08:00:02.337Z,102801.28
2023-02-06T08:02:31.998Z,102806.47
2023-02-06T08:05:00.190Z,102804.44
2023-02-06T08:07:28.613Z,102801.56
2023-02-06T08:09:56.829Z,102794.31
2023-02-06T08:12:25.050Z,102789.78
2023-02-06T08:14:53.472Z,102805.63
2023-02-06T08:17:21.681Z,102803.41
2023-02-06T08:19:51.506Z,102809.81
2023-02-06T08:22:20.245Z,102810.59
2023-02-06T08:24:49.012Z,102805.47
2023-02-06T08:27:17.306Z,102815.13
2023-02-06T08:29:45.926Z,102809.09
2023-02-06T08:32:14.348Z,102812.78
2023-02-06T08:34:42.777Z,102822.59
2023-02-06T08:37:23.656Z,102818.75
2023-02-06T08:39:51.876Z,102819.09
2023-02-06T08:42:21.311Z,102829.50
2023-02-06T08:44:49.501Z,102823.88
2023-02-06T08:47:23.498Z,102828.84
2023-02-06T08:49:52.699Z,102830.06
2023-02-06T08:52:22.745Z,102816.75
2023-02-06T08:54:52.202Z,102811.56
2023-02-06T08:57:33.612Z,102816.84
2023-02-06T09:00:01.852Z,102805.59
2023-02-06T09:02:32.563Z,102809.72
2023-02-06T09:05:00.861Z,102807.50
2023-02-06T09:07:32.315Z,102810.19
2023-02-06T09:10:00.600Z,102822.53
2023-02-06T09:12:34.558Z,102827.47
2023-02-06T09:15:02.772Z,102838.00
2023-02-06T09:17:32.714Z,102837.16
2023-02-06T09:20:01.750Z,102836.28
2023-02-06T09:22:31.963Z,102837.53
2023-02-06T09:25:00.428Z,102830.72
2023-02-06T09:27:28.631Z,102826.03
2023-02-06T09:29:56.881Z,102822.38
2023-02-06T09:32:25.102Z,102823.84
2023-02-06T09:34:53.343Z,102818.88
2023-02-06T09:37:21.684Z,102818.41
2023-02-06T09:39:51.476Z,102804.97
2023-02-06T09:42:26.867Z,102799.56
2023-02-06T09:45:04.257Z,102801.34
2023-02-06T09:47:34.687Z,102797.34
2023-02-06T09:50:08.085Z,102795.88
2023-02-06T09:52:55.625Z,102801.63
2023-02-06T09:55:33.503Z,102801.63
2023-02-06T09:58:17.257Z,102797.56
2023-02-06T10:00:53.529Z,102808.41
2023-02-06T10:03:52.758Z,102817.94
2023-02-06T10:06:24.541Z,102815.91
2023-02-06T10:09:02.581Z,102821.28
2023-02-06T10:11:45.281Z,102825.91
2023-02-06T10:14:22.365Z,102829.09
2023-02-06T10:16:56.080Z,102830.38
2023-02-06T10:19:31.497Z,102830.94
2023-02-06T10:22:05.055Z,102817.06
2023-02-06T10:24:41.031Z,102823.03
2023-02-06T10:27:13.989Z,102823.34
2023-02-06T10:29:44.182Z,102816.34
2023-02-06T10:32:26.647Z,102808.91
2023-02-06T10:35:14.262Z,102805.16
2023-02-06T10:38:04.936Z,102802.97
2023-02-06T10:40:49.021Z,102801.88
2023-02-06T10:43:30.072Z,102798.38
2023-02-06T10:46:20.605Z,102800.53
2023-02-06T10:49:00.859Z,102805.38
2023-02-06T10:51:34.319Z,102802.56
2023-02-06T10:54:05.293Z,102793.13
2023-02-06T10:56:38.389Z,102793.88
2023-02-06T10:59:26.942Z,102778.84
2023-02-06T11:02:04.962Z,102797.53
2023-02-06T11:04:40.634Z,102793.81
2023-02-06T11:07:17.479Z,102790.56
2023-02-06T11:09:45.905Z,102793.63
2023-02-06T11:12:27.555Z,102796.19
2023-02-06T11:15:01.698Z,102793.28
2023-02-06T11:17:30.101Z,102800.19
2023-02-06T11:20:03.546Z,102793.81
2023-02-06T11:22:41.520Z,102794.06
2023-02-06T11:25:30.491Z,102789.44
2023-02-06T11:28:00.661Z,102785.69
2023-02-06T11:30:36.028Z,102787.16
2023-02-06T11:33:07.948Z,102783.47
2023-02-06T11:35:40.562Z,102785.28
2023-02-06T11:38:17.574Z,102785.75
2023-02-06T11:40:56.179Z,102788.72
2023-02-06T11:43:26.564Z,102789.97
2023-02-06T11:46:17.719Z,102784.50
2023-02-06T11:48:48.514Z,102788.44
2023-02-06T11:51:17.854Z,102783.25
2023-02-06T11:53:57.759Z,102790.91
2023-02-06T11:56:26.338Z,102782.41
2023-02-06T11:59:08.128Z,102779.97
2023-02-06T12:01:44.806Z,102775.19
2023-02-06T12:04:24.084Z,102764.25
2023-02-06T12:06:58.650Z,102764.94
2023-02-06T12:09:27.149Z,102757.38
2023-02-06T12:12:01.115Z,102751.91
2023-02-06T12:14:39.335Z,102747.03
2023-02-06T12:17:22.408Z,102753.63
2023-02-06T12:19:56.919Z,102756.94
2023-02-06T12:22:26.895Z,102751.56
2023-02-06T12:24:57.786Z,102741.44
2023-02-06T12:27:30.710Z,102749.28
2023-02-06T12:30:04.159Z,102753.28
2023-02-06T12:32:39.908Z,102759.88
2023-02-06T12:35:16.438Z,102754.41
2023-02-06T12:37:50.551Z,102744.28
2023-02-06T12:40:34.593Z,102745.03
2023-02-06T12:43:08.304Z,102742.78
2023-02-06T12:45:45.092Z,102739.72
2023-02-06T12:48:20.576Z,102742.09
2023-02-06T12:51:06.215Z,102744.31
2023-02-06T12:53:39.538Z,102736.94
2023-02-06T12:56:21.748Z,102741.19
2023-02-06T12:58:58.102Z,102735.59
2023-02-06T13:01:40.313Z,102733.41
2023-02-06T13:04:16.488Z,102731.31
2023-02-06T13:06:51.785Z,102729.63
2023-02-06T13:09:25.901Z,102730.16
2023-02-06T13:12:08.920Z,102733.75
2023-02-06T13:14:38.780Z,102732.06
2023-02-06T13:17:11.965Z,102737.25
2023-02-06T13:20:13.036Z,102731.19
2023-02-06T13:22:45.017Z,102727.84
2023-02-06T13:25:53.263Z,102731.41
2023-02-06T13:28:44.693Z,102724.63
2023-02-06T13:31:25.924Z,102710.72
2023-02-06T13:33:56.969Z,102715.25
2023-02-06T13:36:45.100Z,102708.50
2023-02-06T13:39:34.131Z,102722.81
2023-02-06T13:42:19.781Z,102720.09
2023-02-06T13:44:48.108Z,102729.81
2023-02-06T13:47:54.689Z,102724.44
2023-02-06T13:51:05.213Z,102725.19
2023-02-06T13:54:10.328Z,102725.06
2023-02-06T13:56:52.580Z,102716.25
2023-02-06T13:59:26.141Z,102709.16
2023-02-06T14:01:55.322Z,102697.97
2023-02-06T14:04:28.190Z,102701.22
2023-02-06T14:07:16.812Z,102710.88
2023-02-06T14:10:04.336Z,102712.66
2023-02-06T14:12:46.651Z,102719.75
2023-02-06T14:15:24.867Z,102725.91
2023-02-06T14:18:10.808Z,102718.91
2023-02-06T14:20:50.034Z,102714.59
2023-02-06T14:23:40.564Z,102714.88
2023-02-06T14:29:28.907Z,102705.44
2023-02-06T14:32:19.358Z,102706.38
2023-02-06T14:34:59.425Z,102710.63
2023-02-06T14:37:55.484Z,102713.38
2023-02-06T14:40:26.044Z,102713.38
2023-02-06T14:42:59.567Z,102709.88
2023-02-06T14:45:40.835Z,102702.97
2023-02-06T14:48:36.799Z,102702.34
2023-02-06T14:51:23.355Z,102707.00
2023-02-06T14:53:57.325Z,102710.66
2023-02-06T14:56:31.562Z,102700.38
2023-02-06T14:59:17.278Z,102695.50
2023-02-06T15:01:48.164Z,102693.22
2023-02-06T15:04:19.126Z,102697.22
2023-02-06T15:06:53.117Z,102694.97
2023-02-06T15:09:27.677Z,102700.75
2023-02-06T15:11:57.629Z,102697.63
2023-02-06T15:14:30.352Z,102692.91
2023-02-06T15:17:00.970Z,102690.56
2023-02-06T15:19:31.259Z,102701.53
2023-02-06T15:22:02.931Z,102691.31
2023-02-06T15:24:58.213Z,102695.28
2023-02-06T15:27:31.920Z,102697.28
2023-02-06T15:30:02.891Z,102693.22
2023-02-06T15:32:34.242Z,102688.38
2023-02-06T15:35:06.380Z,102689.91
2023-02-06T15:37:36.697Z,102692.16
2023-02-06T15:40:20.985Z,102696.19
2023-02-06T15:42:51.946Z,102688.56
2023-02-06T15:45:27.467Z,102692.31
2023-02-06T15:47:57.102Z,102691.81
2023-02-06T15:50:40.699Z,102686.72
2023-02-06T15:53:19.772Z,102695.00
2023-02-06T15:55:57.885Z,102697.03
2023-02-06T15:58:27.527Z,102690.34
2023-02-06T16:00:58.661Z,102695.03
2023-02-06T16:03:29.419Z,102693.41
2023-02-06T16:05:59.125Z,102694.47
2023-02-06T16:08:32.172Z,102692.09
2023-02-06T16:11:03.766Z,102691.41
2023-02-06T16:13:33.963Z,102699.31
2023-02-06T16:16:08.987Z,102688.94
2023-02-06T16:18:39.044Z,102692.78
2023-02-06T16:21:36.983Z,102698.94
2023-02-06T16:24:16.586Z,102697.38
2023-02-06T16:26:48.184Z,102694.19
2023-02-06T16:29:26.953Z,102698.78
2023-02-06T16:32:02.163Z,102699.94
2023-02-06T16:34:37.402Z,102704.47
2023-02-06T16:37:11.011Z,102713.50
2023-02-06T16:39:40.259Z,102717.06
2023-02-06T16:42:09.490Z,102715.44
2023-02-06T16:44:44.816Z,102718.16
2023-02-06T16:47:18.525Z,102718.34
2023-02-06T16:49:49.740Z,102720.19
2023-02-06T16:52:36.749Z,102724.63
2023-02-06T16:55:05.765Z,102716.97
2023-02-06T16:57:36.628Z,102710.09
2023-02-06T17:00:06.809Z,102716.44
2023-02-06T17:02:36.858Z,102715.69
2023-02-06T17:05:05.416Z,102719.38
2023-02-06T17:07:35.452Z,102720.38
2023-02-06T17:10:04.295Z,102718.66
2023-02-06T17:12:32.629Z,102721.38
2023-02-06T17:15:00.954Z,102713.72
2023-02-06T17:17:29.519Z,102722.56
2023-02-06T17:19:59.318Z,102716.63
2023-02-06T17:22:27.604Z,102722.06
2023-02-06T17:24:58.471Z,102721.34
2023-02-06T17:27:29.660Z,102711.16
2023-02-06T17:29:57.887Z,102703.50
2023-02-06T17:32:26.069Z,102707.22
2023-02-06T17:34:58.289Z,102708.22
2023-02-06T17:37:30.186Z,102709.34
2023-02-06T17:40:26.809Z,102709.56
2023-02-06T17:42:55.684Z,102724.53
2023-02-06T17:45:24.007Z,102724.59
2023-02-06T17:47:52.704Z,102723.81
2023-02-06T17:50:22.467Z,102730.06
2023-02-06T17:52:55.800Z,102728.34
2023-02-06T17:55:24.426Z,102723.94
2023-02-06T17:57:52.703Z,102727.56
2023-02-06T18:00:23.823Z,102719.69
2023-02-06T18:02:52.441Z,102711.16
2023-02-06T18:05:21.282Z,102712.00
2023-02-06T18:07:50.852Z,102715.56
2023-02-06T18:10:28.120Z,102717.50
2023-02-06T18:12:57.117Z,102709.84
2023-02-06T18:15:25.367Z,102716.13
2023-02-06T18:17:55.019Z,102705.75
2023-02-06T18:20:23.501Z,102718.22
2023-02-06T18:23:07.823Z,102715.75
2023-02-06T18:25:43.123Z,102726.59
2023-02-06T18:28:13.961Z,102730.28
2023-02-06T18:30:42.918Z,102720.16
2023-02-06T18:33:12.927Z,102713.97
2023-02-06T18:35:42.211Z,102711.41
2023-02-06T18:38:10.883Z,102704.44
2023-02-06T18:40:42.853Z,102710.41
2023-02-06T18:43:10.054Z,102702.38
2023-02-06T18:45:40.301Z,102699.56
2023-02-06T18:48:15.390Z,102691.59
2023-02-06T18:50:44.360Z,102695.84
2023-02-06T18:53:14.072Z,102704.75
2023-02-06T18:55:44.008Z,102705.53
2023-02-06T18:58:12.285Z,102715.91
2023-02-06T19:00:42.423Z,102715.06
2023-02-06T19:03:10.764Z,102709.72
2023-02-06T19:05:39.016Z,102712.28
2023-02-06T19:08:07.452Z,102706.16
2023-02-06T19:10:36.007Z,102712.34
2023-02-06T19:13:06.089Z,102702.75
2023-02-06T19:15:36.046Z,102696.63
2023-02-06T19:18:05.809Z,102692.28
2023-02-06T19:20:33.986Z,102701.91
2023-02-06T19:23:02.227Z,102694.16
2023-02-06T19:25:30.806Z,102698.56
2023-02-06T19:27:59.019Z,102695.16
2023-02-06T19:30:28.811Z,102708.38
2023-02-06T19:32:57.080Z,102705.00
2023-02-06T19:35:25.338Z,102697.25
2023-02-06T19:37:53.799Z,102703.44
2023-02-06T19:40:22.285Z,102695.63
2023-02-06T19:42:50.497Z,102692.22
2023-02-06T19:45:28.562Z,102688.81
2023-02-06T19:47:58.346Z,102689.66
2023-02-06T19:50:35.739Z,102681.00
2023-02-06T19:53:04.997Z,102674.91
2023-02-06T19:55:33.792Z,102674.28
2023-02-06T19:58:02.065Z,102676.91
2023-02-06T20:00:30.437Z,102672.66
2023-02-06T20:03:00.109Z,102674.41
2023-02-06T20:05:28.476Z,102671.09
2023-02-06T20:07:56.817Z,102671.09
2023-02-06T20:10:25.429Z,102672.88
2023-02-06T20:12:54.998Z,102669.38
2023-02-06T20:15:23.191Z,102669.38
2023-02-06T20:17:52.229Z,102658.84
2023-02-06T20:20:22.146Z,102664.22
2023-02-06T20:22:50.398Z,102660.75
2023-02-06T20:25:19.256Z,102663.44
2023-02-06T20:27:47.556Z,102662.59
2023-02-06T20:30:17.396Z,102660.97
2023-02-06T20:32:45.821Z,102662.66
2023-02-06T20:35:14.193Z,102673.19
2023-02-06T20:37:43.941Z,102674.19
2023-02-06T20:40:12.581Z,102675.97
2023-02-06T20:42:44.561Z,102664.53
2023-02-06T20:45:13.330Z,102665.44
2023-02-06T20:47:41.568Z,102669.00
2023-02-06T20:50:10.550Z,102670.78
2023-02-06T20:52:38.975Z,102669.84
2023-02-06T20:55:09.429Z,102667.31
2023-02-06T20:57:37.789Z,102668.16
2023-02-06T21:00:07.795Z,102671.72
2023-02-06T21:02:36.662Z,102669.06
2023-02-06T21:05:06.293Z,102669.25
2023-02-06T21:07:34.655Z,102661.38
2023-02-06T21:10:04.311Z,102670.94
2023-02-06T21:12:33.970Z,102673.56
2023-02-06T21:15:02.632Z,102676.19
2023-02-06T21:17:30.843Z,102664.06
2023-02-06T21:19:59.182Z,102666.63
2023-02-06T21:22:27.455Z,102671.03
2023-02-06T21:24:59.381Z,102669.25
2023-02-06T21:27:29.325Z,102668.41
2023-02-06T21:29:59.022Z,102658.09
2023-02-06T21:32:27.473Z,102656.53
2023-02-06T21:34:55.769Z,102668.91
2023-02-06T21:37:24.012Z,102660.28
2023-02-06T21:39:52.276Z,102667.19
2023-02-06T21:42:26.217Z,102659.41
2023-02-06T21:44:54.587Z,102657.78
2023-02-06T21:47:24.262Z,102658.63
2023-02-06T21:49:57.058Z,102659.63
2023-02-06T21:52:25.240Z,102651.81
2023-02-06T21:54:53.544Z,102647.56
2023-02-06T21:57:21.889Z,102643.06
2023-02-06T21:59:50.113Z,102637.03
2023-02-06T22:02:18.707Z,102637.88
2023-02-06T22:04:48.564Z,102637.88
2023-02-06T22:07:16.954Z,102644.06
2023-02-06T22:09:45.194Z,102639.66
2023-02-06T22:12:13.470Z,102646.63
2023-02-06T22:14:42.153Z,102643.16
2023-02-06T22:17:11.796Z,102650.97
2023-02-06T22:19:42.350Z,102644.00
2023-02-06T22:22:12.667Z,102641.38
2023-02-06T22:24:40.919Z,102645.78
2023-02-06T22:27:09.121Z,102642.28
2023-02-06T22:29:37.436Z,102645.94
2023-02-06T22:32:06.092Z,102652.88
2023-02-06T22:34:35.278Z,102644.22
2023-02-06T22:37:03.460Z,102652.09
2023-02-06T22:39:33.164Z,102663.47
2023-02-06T22:42:01.405Z,102656.44
2023-02-06T22:44:29.837Z,102654.00
2023-02-06T22:46:58.089Z,102654.97
2023-02-06T22:49:27.495Z,102663.00
2023-02-06T22:51:58.030Z,102659.75
2023-02-06T22:54:26.402Z,102670.25
2023-02-06T22:56:56.510Z,102662.47
2023-02-06T22:59:26.794Z,102667.81
2023-02-06T23:01:58.639Z,102673.97
2023-02-06T23:04:28.424Z,102676.69
2023-02-06T23:06:57.517Z,102661.91
2023-02-06T23:09:28.935Z,102665.44
2023-02-06T23:11:59.692Z,102659.41
2023-02-06T23:14:31.582Z,102660.50
2023-02-06T23:17:01.628Z,102651.00
2023-02-06T23:19:30.259Z,102656.38
2023-02-06T23:21:58.674Z,102647.78
2023-02-06T23:24:26.816Z,102655.75
2023-02-06T23:26:57.562Z,102648.88
2023-02-06T23:29:27.810Z,102645.41
2023-02-06T23:31:56.795Z,102641.75
2023-02-06T23:34:25.034Z,102634.66
2023-02-06T23:36:54.478Z,102637.91
2023-02-06T23:39:22.889Z,102644.63
2023-02-06T23:41:51.395Z,102634.69
2023-02-06T23:44:20.392Z,102620.47
2023-02-06T23:46:50.156Z,102628.97
2023-02-06T23:49:18.752Z,102626.06
2023-02-06T23:51:47.192Z,102620.47
2023-02-06T23:54:15.551Z,102628.09
2023-02-06T23:56:43.899Z,102619.88
2023-02-06T23:59:13.170Z,102621.34
